Time;durP1;ratioP1;P1;durP2;ratioP2;P2;SDS_P1;SDS_P2;PMS_P1;PMS_P2;Temp;Humidity;BMP_temperature;BMP_pressure;BME280_temperature;BME280_humidity;BME280_pressure;Samples;Min_cycle;Max_cycle;Signal;HPM_P1;HPM_P2
2021/05/21 01:06:06;;;;;;;3.08;2.20;;;;;;;;;;6246587;22;20030;-83
2021/05/21 02:53:15;;;;;;;1.75;1.02;;;;;;;;;;6256736;22;20035;-81
2021/05/21 02:55:43;;;;;;;1.52;0.82;;;;;;;;;;6267458;23;20012;-81
2021/05/21 02:58:15;;;;;;;1.10;0.90;;;;;;;;;;6267315;23;20003;-81
2021/05/21 03:00:44;;;;;;;2.78;0.93;;;;;;;;;;6267011;23;19996;-82
2021/05/21 03:03:09;;;;;;;4.57;1.00;;;;;;;;;;6267815;23;20106;-81
2021/05/21 03:05:42;;;;;;;6.43;1.00;;;;;;;;;;6268176;23;19999;-81
2021/05/21 03:08:36;;;;;;;4.10;1.15;;;;;;;;;;6267405;23;20022;-82
2021/05/21 03:11:11;;;;;;;2.83;0.93;;;;;;;;;;6250512;23;19996;-82
2021/05/21 03:13:44;;;;;;;3.80;1.00;;;;;;;;;;6267504;23;20075;-81
2021/05/21 03:16:28;;;;;;;2.30;1.00;;;;;;;;;;6266779;23;20000;-81
2021/05/21 03:18:54;;;;;;;3.28;0.80;;;;;;;;;;6267096;23;20052;-81
2021/05/21 03:21:24;;;;;;;2.05;1.10;;;;;;;;;;6266173;23;20004;-81
2021/05/21 03:23:56;;;;;;;3.15;1.15;;;;;;;;;;6264468;23;20023;-81
2021/05/21 03:26:24;;;;;;;1.42;1.08;;;;;;;;;;6237727;23;20004;-81
2021/05/21 03:29:09;;;;;;;4.47;1.10;;;;;;;;;;6267893;23;20505;-81
2021/05/21 03:31:38;;;;;;;3.67;1.00;;;;;;;;;;6242669;23;19981;-81
2021/05/21 03:34:09;;;;;;;3.65;0.82;;;;;;;;;;6268997;23;20000;-81
2021/05/21 03:36:39;;;;;;;3.20;1.00;;;;;;;;;;6268111;23;20003;-81
2021/05/21 03:39:07;;;;;;;1.10;0.80;;;;;;;;;;6241708;23;20345;-81
2021/05/21 03:41:33;;;;;;;3.42;1.40;;;;;;;;;;6266688;23;20147;-81
2021/05/21 03:43:59;;;;;;;2.50;0.90;;;;;;;;;;6240497;23;20453;-81
2021/05/21 03:46:28;;;;;;;2.13;0.80;;;;;;;;;;6266828;23;19996;-81
2021/05/21 03:48:55;;;;;;;3.67;1.00;;;;;;;;;;6239472;23;20000;-81
2021/05/21 03:51:21;;;;;;;2.28;1.00;;;;;;;;;;6267337;23;20019;-81
2021/05/21 03:54:02;;;;;;;1.58;0.90;;;;;;;;;;6294664;22;20042;-81
2021/05/21 03:59:57;;;;;;;2.58;0.90;;;;;;;;;;6146917;23;20002;-81
2021/05/21 04:02:23;;;;;;;5.03;1.10;;;;;;;;;;6121266;23;20420;-81
2021/05/21 04:04:51;;;;;;;3.03;1.13;;;;;;;;;;6147423;23;20002;-81
2021/05/21 04:08:16;;;;;;;2.45;0.90;;;;;;;;;;6146646;23;20133;-81
2021/05/21 04:10:47;;;;;;;1.75;1.30;;;;;;;;;;6144119;23;20026;-81
2021/05/21 04:13:13;;;;;;;3.40;0.90;;;;;;;;;;6146577;23;19990;-81
2021/05/21 04:15:40;;;;;;;1.17;0.77;;;;;;;;;;6121455;23;19993;-81
2021/05/21 04:18:14;;;;;;;1.42;0.80;;;;;;;;;;6147452;23;20002;-81
2021/05/21 04:20:54;;;;;;;2.00;1.00;;;;;;;;;;6146642;23;20010;-81
2021/05/21 04:23:56;;;;;;;2.60;0.98;;;;;;;;;;6147065;23;20467;-81
2021/05/21 04:26:24;;;;;;;3.00;1.02;;;;;;;;;;6141145;23;20086;-81
2021/05/21 04:28:58;;;;;;;1.55;0.93;;;;;;;;;;6147595;23;19993;-81
2021/05/21 04:31:24;;;;;;;3.90;1.15;;;;;;;;;;6277346;22;20464;-81
2021/05/21 12:41:45;;;;;;;4.40;1.17;;;;;;;;;;6328868;22;20104;-88
2021/05/21 12:53:01;;;;;;;3.35;1.10;;;;;;;;;;6328641;22;20019;-89
2021/05/21 12:55:27;;;;;;;3.95;1.10;;;;;;;;;;6339537;22;19995;-90
2021/05/21 12:57:57;;;;;;;5.57;1.20;;;;;;;;;;6312010;22;20002;-90
2021/05/21 13:00:25;;;;;;;3.75;1.05;;;;;;;;;;6311979;22;20041;-90
2021/05/21 13:02:55;;;;;;;2.45;0.80;;;;;;;;;;6311356;22;20002;-91
2021/05/21 13:05:28;;;;;;;2.95;1.10;;;;;;;;;;6312013;22;20011;-91
2021/05/21 13:07:54;;;;;;;1.88;1.20;;;;;;;;;;6312200;22;19994;-90
2021/05/21 13:10:20;;;;;;;1.80;1.00;;;;;;;;;;6311842;22;20451;-90
2021/05/21 13:12:51;;;;;;;5.68;0.95;;;;;;;;;;6311759;22;19994;-91
2021/05/21 13:15:17;;;;;;;3.55;1.00;;;;;;;;;;6311793;22;20037;-91
2021/05/21 13:17:45;;;;;;;4.78;1.02;;;;;;;;;;6311655;22;20482;-90
2021/05/21 13:20:17;;;;;;;3.38;1.05;;;;;;;;;;6311416;22;20010;-91
2021/05/21 13:22:52;;;;;;;2.63;1.00;;;;;;;;;;6311694;22;20060;-91
2021/05/21 13:25:23;;;;;;;5.30;1.30;;;;;;;;;;6311871;22;20391;-90
2021/05/21 13:27:50;;;;;;;;;;;;;;;;;;6312169;22;20002;-91
2021/05/21 13:30:16;;;;;;;2.75;0.90;;;;;;;;;;6311739;22;19902;-90
2021/05/21 13:32:42;;;;;;;5.88;1.20;;;;;;;;;;6311746;22;19999;-90
2021/05/21 13:35:08;;;;;;;3.78;1.20;;;;;;;;;;6339709;22;20002;-90
2021/05/21 13:37:34;;;;;;;3.25;1.08;;;;;;;;;;6312041;22;20432;-91
2021/05/21 13:40:00;;;;;;;4.22;1.10;;;;;;;;;;6311949;22;20497;-90
2021/05/21 13:42:26;;;;;;;4.20;1.30;;;;;;;;;;6311615;22;19998;-90
2021/05/21 13:44:51;;;;;;;3.42;1.20;;;;;;;;;;6311469;22;19999;-90
2021/05/21 13:47:17;;;;;;;4.05;1.20;;;;;;;;;;6311619;22;20010;-90
2021/05/21 13:49:42;;;;;;;5.15;1.60;;;;;;;;;;6311359;22;20033;-90
2021/05/21 13:52:08;;;;;;;5.35;1.60;;;;;;;;;;6311606;22;20071;-90
2021/05/21 13:54:34;;;;;;;5.88;2.08;;;;;;;;;;6311833;22;20049;-90
2021/05/21 13:57:00;;;;;;;6.60;1.85;;;;;;;;;;6339282;22;19999;-90
2021/05/21 13:59:25;;;;;;;7.00;2.15;;;;;;;;;;6311747;22;20022;-90
2021/05/21 14:01:51;;;;;;;6.43;1.95;;;;;;;;;;6311594;22;20044;-89
2021/05/21 14:04:17;;;;;;;8.55;2.22;;;;;;;;;;6311475;22;20425;-91
2021/05/21 14:06:43;;;;;;;6.82;2.17;;;;;;;;;;6339323;22;20025;-91
2021/05/21 14:09:09;;;;;;;9.27;2.33;;;;;;;;;;6311483;22;19995;-91
2021/05/21 14:11:35;;;;;;;7.32;2.10;;;;;;;;;;6311231;22;20002;-91
2021/05/21 14:14:03;;;;;;;11.88;2.55;;;;;;;;;;6311196;22;20092;-91
2021/05/21 14:16:28;;;;;;;8.75;2.35;;;;;;;;;;6338982;22;19999;-91
2021/05/21 14:18:54;;;;;;;6.57;2.15;;;;;;;;;;6310797;22;20048;-91
2021/05/21 14:21:21;;;;;;;9.25;2.70;;;;;;;;;;6310999;22;19999;-90
2021/05/21 14:23:47;;;;;;;7.07;2.53;;;;;;;;;;6311237;22;20078;-90
2021/05/21 14:26:14;;;;;;;5.53;2.28;;;;;;;;;;6311084;22;19995;-90
2021/05/21 14:28:40;;;;;;;8.02;2.55;;;;;;;;;;6310836;22;20002;-91
2021/05/21 14:31:05;;;;;;;11.77;2.50;;;;;;;;;;6311254;22;20481;-90
2021/05/21 14:33:37;;;;;;;6.65;2.10;;;;;;;;;;6311123;22;20005;-92
2021/05/21 14:36:04;;;;;;;9.93;2.47;;;;;;;;;;6339031;22;20006;-91
2021/05/21 14:38:30;;;;;;;6.05;2.35;;;;;;;;;;6310997;22;20069;-90
2021/05/21 14:40:56;;;;;;;8.60;2.30;;;;;;;;;;6338676;22;20006;-90
2021/05/21 14:50:11;;;;;;;10.43;2.35;;;;;;;;;;6339109;22;20009;-90
2021/05/21 14:52:37;;;;;;;8.43;2.80;;;;;;;;;;6338681;22;20015;-90
2021/05/21 14:55:08;;;;;;;9.40;2.58;;;;;;;;;;6338721;22;20416;-90
2021/05/21 14:57:34;;;;;;;15.30;2.42;;;;;;;;;;6310675;22;20026;-89
2021/05/21 15:00:00;;;;;;;7.78;2.42;;;;;;;;;;6311301;22;19998;-89
2021/05/21 15:02:30;;;;;;;5.65;2.50;;;;;;;;;;6311529;22;20051;-88
2021/05/21 15:08:26;;;;;;;8.07;2.00;;;;;;;;;;6276465;22;20393;-86
2021/05/21 15:10:53;;;;;;;6.50;1.80;;;;;;;;;;6247647;22;20007;-87
2021/05/21 18:54:34;;;;;;;6.40;2.38;;;;;;;;;;6358287;22;20009;-83
2021/05/21 19:02:36;;;;;;;3.35;2.72;;;;;;;;;;6360423;22;20089;-83
2021/05/21 19:05:12;;;;;;;5.37;2.70;;;;;;;;;;6356485;22;20003;-83
2021/05/21 19:07:51;;;;;;;3.65;2.30;;;;;;;;;;6352859;22;20441;-82
2021/05/21 19:10:25;;;;;;;4.80;2.28;;;;;;;;;;6354930;22;19995;-83
2021/05/21 19:17:56;;;;;;;3.05;2.40;;;;;;;;;;6354004;22;20003;-83
2021/05/21 19:20:30;;;;;;;4.88;2.78;;;;;;;;;;6335256;22;20045;-84
2021/05/21 19:23:04;;;;;;;6.20;2.25;;;;;;;;;;6358639;22;20002;-83
2021/05/21 19:25:32;;;;;;;3.78;2.40;;;;;;;;;;6358215;22;20002;-83
2021/05/21 19:28:02;;;;;;;3.42;1.90;;;;;;;;;;6329451;22;20450;-83
2021/05/21 19:31:21;;;;;;;3.70;2.38;;;;;;;;;;6359394;22;19995;-83
2021/05/21 20:12:41;;;;;;;4.55;1.60;;;;;;;;;;6340129;22;20332;-81
2021/05/21 20:15:07;;;;;;;2.08;1.20;;;;;;;;;;6340543;22;19995;-81
2021/05/21 20:17:37;;;;;;;1.45;1.27;;;;;;;;;;6340301;22;20059;-81
2021/05/21 20:20:04;;;;;;;1.75;1.17;;;;;;;;;;6341513;22;20005;-81
2021/05/21 20:22:30;;;;;;;3.20;1.65;;;;;;;;;;6346135;22;20002;-80
2021/05/21 20:25:21;;;;;;;2.60;1.60;;;;;;;;;;6343611;22;20022;-79
2021/05/21 20:28:10;;;;;;;2.73;1.83;;;;;;;;;;6340894;22;20437;-79
2021/05/21 20:39:11;;;;;;;3.35;1.50;;;;;;;;;;6330281;22;20065;-78
2021/05/21 21:51:45;;;;;;;2.40;1.42;;;;;;;;;;6063318;23;20902;-79
2021/05/21 21:59:52;;;;;;;3.47;1.38;;;;;;;;;;6241264;22;20011;-79
2021/05/21 22:08:29;;;;;;;1.38;1.20;;;;;;;;;;6275696;22;19961;-79
2021/05/21 22:20:08;;;;;;;3.10;1.40;;;;;;;;;;6275620;22;20019;-79
2021/05/21 22:26:07;;;;;;;1.23;0.90;;;;;;;;;;6151966;23;20060;-79
2021/05/21 22:28:35;;;;;;;1.98;1.02;;;;;;;;;;6151849;23;20001;-79
2021/05/21 22:31:12;;;;;;;3.78;1.10;;;;;;;;;;6127066;23;19998;-79
2021/05/21 22:33:46;;;;;;;2.15;1.08;;;;;;;;;;6151452;23;20002;-79
2021/05/21 22:36:12;;;;;;;1.50;0.95;;;;;;;;;;6151973;23;20045;-78
2021/05/21 22:38:38;;;;;;;6.80;4.45;;;;;;;;;;6166928;23;20021;-79
2021/05/21 22:41:04;;;;;;;1.55;1.00;;;;;;;;;;6182553;23;20029;-79
2021/05/21 22:43:30;;;;;;;1.35;0.90;;;;;;;;;;6157464;23;20104;-79
2021/05/21 22:46:11;;;;;;;2.15;1.02;;;;;;;;;;6181889;23;20071;-79
2021/05/21 22:48:36;;;;;;;2.65;1.20;;;;;;;;;;6182472;23;20075;-79
2021/05/21 22:51:05;;;;;;;3.00;1.02;;;;;;;;;;6181020;23;20454;-79
2021/05/21 22:53:32;;;;;;;4.57;1.27;;;;;;;;;;6182297;23;20001;-79
2021/05/21 22:56:01;;;;;;;2.55;1.13;;;;;;;;;;6181905;23;20000;-78
2021/05/21 22:58:29;;;;;;;2.63;0.90;;;;;;;;;;6182565;23;20001;-79
2021/05/21 23:01:05;;;;;;;2.55;0.90;;;;;;;;;;6182870;23;20009;-79
2021/05/21 23:03:31;;;;;;;1.25;0.90;;;;;;;;;;6276617;22;20011;-79
2021/05/21 23:05:56;;;;;;;1.00;0.90;;;;;;;;;;6249554;22;20341;-79
2021/05/21 23:11:12;;;;;;;1.55;1.20;;;;;;;;;;6275316;22;20003;-79
2021/05/21 23:13:38;;;;;;;2.47;1.23;;;;;;;;;;6276351;22;20004;-79
2021/05/21 23:16:06;;;;;;;1.55;1.23;;;;;;;;;;6276545;22;20000;-79
2021/05/21 23:18:33;;;;;;;3.15;1.20;;;;;;;;;;6277162;22;20468;-80
2021/05/21 23:20:59;;;;;;;3.28;1.23;;;;;;;;;;6276456;22;20434;-79
2021/05/21 23:23:24;;;;;;;1.48;1.30;;;;;;;;;;6276529;22;20049;-79
2021/05/21 23:25:50;;;;;;;2.08;1.38;;;;;;;;;;6276352;22;19999;-79
2021/05/21 23:28:15;;;;;;;1.33;1.23;;;;;;;;;;6276161;22;19995;-78
2021/05/21 23:30:43;;;;;;;1.83;1.40;;;;;;;;;;6276879;22;19999;-79
2021/05/21 23:33:46;;;;;;;2.30;1.60;;;;;;;;;;6277559;22;19995;-79
2021/05/21 23:36:47;;;;;;;3.35;1.75;;;;;;;;;;6275608;22;20046;-79
2021/05/21 23:39:34;;;;;;;2.35;1.67;;;;;;;;;;6298774;22;20041;-79
2021/05/21 23:42:07;;;;;;;2.28;1.40;;;;;;;;;;6306958;22;20016;-79
2021/05/21 23:44:32;;;;;;;2.45;1.48;;;;;;;;;;6279249;22;20013;-79
2021/05/21 23:46:58;;;;;;;2.75;1.23;;;;;;;;;;6309019;22;20023;-79
2021/05/21 23:49:24;;;;;;;1.58;1.40;;;;;;;;;;6309427;22;19995;-79
2021/05/21 23:51:49;;;;;;;2.03;1.23;;;;;;;;;;6308854;22;19995;-79
2021/05/21 23:54:18;;;;;;;2.55;1.27;;;;;;;;;;6309192;22;20447;-79
2021/05/21 23:56:44;;;;;;;1.30;1.20;;;;;;;;;;6309201;22;19999;-79
2021/05/21 23:59:11;;;;;;;2.08;1.20;;;;;;;;;;6310660;22;20030;-79
